createdAt,value
2022-09-01T00:00:13.325Z,102430.84
2022-09-01T00:02:43.368Z,102429.06
2022-09-01T00:05:13.061Z,102430.84
2022-09-01T00:07:41.530Z,102426.38
2022-09-01T00:10:16.834Z,102425.50
2022-09-01T00:12:45.895Z,102429.03
2022-09-01T00:15:22.080Z,102427.25
2022-09-01T00:17:54.724Z,102421.91
2022-09-01T00:20:23.098Z,102420.16
2022-09-01T00:22:51.574Z,102425.44
2022-09-01T00:25:20.387Z,102422.78
2022-09-01T00:27:49.833Z,102424.56
2022-09-01T00:30:19.340Z,102421.91
2022-09-01T00:32:48.259Z,102430.78
2022-09-01T00:35:18.821Z,102424.56
2022-09-01T00:37:47.254Z,102424.56
2022-09-01T00:40:17.468Z,102429.88
2022-09-01T00:42:47.001Z,102423.66
2022-09-01T00:45:15.422Z,102428.06
2022-09-01T00:47:44.952Z,102424.53
2022-09-01T00:50:17.019Z,102422.72
2022-09-01T00:52:51.009Z,102423.63
2022-09-01T00:55:26.559Z,102424.50
2022-09-01T00:57:56.201Z,102426.25
2022-09-01T01:00:28.717Z,102418.25
2022-09-01T01:02:58.229Z,102414.72
2022-09-01T01:05:34.259Z,102415.59
2022-09-01T01:08:04.365Z,102420.03
2022-09-01T01:10:36.630Z,102419.09
2022-09-01T01:13:15.778Z,102411.16
2022-09-01T01:15:44.942Z,102405.84
2022-09-01T01:18:22.985Z,102413.81
2022-09-01T01:21:27.084Z,102415.56
2022-09-01T01:24:06.789Z,102404.94
2022-09-01T01:26:35.498Z,102414.69
2022-09-01T01:29:03.962Z,102404.03
2022-09-01T01:31:32.883Z,102396.06
2022-09-01T01:34:02.146Z,102408.50
2022-09-01T01:36:36.714Z,102397.88
2022-09-01T01:39:18.513Z,102400.50
2022-09-01T01:41:49.460Z,102405.81
2022-09-01T01:44:25.139Z,102402.31
2022-09-01T01:46:55.877Z,102409.41
2022-09-01T01:49:29.252Z,102398.75
2022-09-01T01:52:01.306Z,102399.66
2022-09-01T01:54:32.830Z,102404.97
2022-09-01T01:57:04.481Z,102407.59
2022-09-01T01:59:33.962Z,102401.41
2022-09-01T02:02:04.015Z,102402.28
2022-09-01T02:04:34.740Z,102404.03
2022-09-01T02:07:13.764Z,102399.63
2022-09-01T02:09:46.160Z,102398.72
2022-09-01T02:12:19.667Z,102407.59
2022-09-01T02:14:50.173Z,102412.91
2022-09-01T02:17:18.579Z,102408.44
2022-09-01T02:19:48.514Z,102410.19
2022-09-01T02:22:19.838Z,102417.28
2022-09-01T02:24:49.764Z,102417.25
2022-09-01T02:27:23.376Z,102408.41
2022-09-01T02:29:55.389Z,102403.97
2022-09-01T02:32:26.478Z,102396.91
2022-09-01T02:34:57.011Z,102398.66
2022-09-01T02:37:25.492Z,102395.09
2022-09-01T02:39:57.671Z,102399.53
2022-09-01T02:42:29.731Z,102403.97
2022-09-01T02:44:58.900Z,102394.22
2022-09-01T02:47:28.598Z,102397.75
2022-09-01T02:50:01.103Z,102400.41
2022-09-01T02:52:37.577Z,102398.63
2022-09-01T02:55:07.946Z,102389.81
2022-09-01T02:57:36.335Z,102393.31
2022-09-01T03:00:20.655Z,102394.25
2022-09-01T03:02:53.137Z,102391.56
2022-09-01T03:05:27.066Z,102386.28
2022-09-01T03:08:01.676Z,102384.50
2022-09-01T03:10:41.844Z,102385.41
2022-09-01T03:13:16.301Z,102388.03
2022-09-01T03:15:45.600Z,102387.16
2022-09-01T03:18:14.986Z,102386.28
2022-09-01T03:20:46.582Z,102383.59
2022-09-01T03:23:19.420Z,102386.25
2022-09-01T03:25:49.433Z,102388.91
2022-09-01T03:28:18.406Z,102380.94
2022-09-01T03:30:52.651Z,102380.06
2022-09-01T03:33:22.990Z,102384.47
2022-09-01T03:35:52.485Z,102383.59
2022-09-01T03:38:24.316Z,102380.94
2022-09-01T03:41:01.012Z,102382.69
2022-09-01T03:43:35.793Z,102377.38
2022-09-01T03:46:05.635Z,102378.28
2022-09-01T03:48:34.475Z,102371.19
2022-09-01T03:51:03.361Z,102365.88
2022-09-01T03:53:37.728Z,102369.41
2022-09-01T03:56:09.178Z,102374.72
2022-09-01T03:58:38.292Z,102371.19
2022-09-01T04:01:06.951Z,102375.66
2022-09-01T04:03:41.864Z,102370.31
2022-09-01T04:06:10.737Z,102369.44
2022-09-01T04:08:39.633Z,102370.31
2022-09-01T04:11:16.482Z,102377.41
2022-09-01T04:13:47.769Z,102375.63
2022-09-01T04:16:51.108Z,102375.63
2022-09-01T04:19:25.851Z,102368.50
2022-09-01T04:22:02.584Z,102378.25
2022-09-01T04:24:45.079Z,102374.72
2022-09-01T04:27:15.696Z,102372.03
2022-09-01T04:29:46.593Z,102369.38
2022-09-01T04:32:15.878Z,102371.19
2022-09-01T04:34:51.033Z,102366.72
2022-09-01T04:37:21.874Z,102371.16
2022-09-01T04:39:59.590Z,102369.38
2022-09-01T04:42:32.606Z,102370.28
2022-09-01T04:45:10.441Z,102366.72
2022-09-01T04:47:42.583Z,102366.72
2022-09-01T04:50:16.469Z,102374.69
2022-09-01T04:52:47.915Z,102362.31
2022-09-01T04:55:32.619Z,102366.72
2022-09-01T04:58:05.155Z,102364.94
2022-09-01T05:00:36.913Z,102368.50
2022-09-01T05:03:05.473Z,102371.16
2022-09-01T05:05:58.400Z,102368.50
2022-09-01T05:08:35.264Z,102376.50
2022-09-01T05:11:08.145Z,102373.81
2022-09-01T05:13:49.286Z,102372.09
2022-09-01T05:16:25.082Z,102378.28
2022-09-01T05:18:58.007Z,102372.06
2022-09-01T05:21:31.206Z,102375.66
2022-09-01T05:24:01.619Z,102372.97
2022-09-01T05:26:34.677Z,102383.63
2022-09-01T05:29:10.770Z,102375.69
2022-09-01T05:31:42.097Z,102388.16
2022-09-01T05:34:13.939Z,102375.75
2022-09-01T05:36:46.279Z,102376.72
2022-09-01T05:39:15.027Z,102382.09
2022-09-01T05:41:44.147Z,102371.50
2022-09-01T05:44:14.420Z,102376.84
2022-09-01T05:46:44.650Z,102375.13
2022-09-01T05:49:16.282Z,102376.03
2022-09-01T05:51:51.846Z,102374.28
2022-09-01T05:54:27.496Z,102376.94
2022-09-01T05:57:17.454Z,102380.50
2022-09-01T05:59:54.344Z,102377.88
2022-09-01T06:02:27.331Z,102381.41
2022-09-01T06:04:57.697Z,102381.38
2022-09-01T06:07:32.028Z,102376.94
2022-09-01T06:10:02.372Z,102380.47
2022-09-01T06:12:31.353Z,102383.97
2022-09-01T06:15:00.235Z,102386.56
2022-09-01T06:17:30.847Z,102391.88
2022-09-01T06:20:10.935Z,102386.53
2022-09-01T06:22:43.888Z,102394.50
2022-09-01T06:25:12.709Z,102389.13
2022-09-01T06:27:45.978Z,102395.28
2022-09-01T06:30:26.577Z,102397.03
2022-09-01T06:33:10.582Z,102394.31
2022-09-01T06:35:44.492Z,102406.66
2022-09-01T06:38:15.642Z,102404.91
2022-09-01T06:41:00.178Z,102403.16
2022-09-01T06:43:30.902Z,102404.03
2022-09-01T06:46:02.440Z,102399.63
2022-09-01T06:48:31.179Z,102410.31
2022-09-01T06:51:21.473Z,102415.69
2022-09-01T06:53:57.216Z,102417.56
2022-09-01T06:56:32.351Z,102415.81
2022-09-01T06:59:04.162Z,102405.25
2022-09-01T07:01:33.752Z,102415.94
2022-09-01T07:04:03.499Z,102416.84
2022-09-01T07:10:06.323Z,102426.66
2022-09-01T07:18:34.216Z,102425.84
2022-09-01T07:21:36.320Z,102432.06
2022-09-01T07:24:13.428Z,102427.66
2022-09-01T07:27:09.463Z,102431.25
2022-09-01T07:29:39.566Z,102426.81
2022-09-01T07:35:00.863Z,102427.78
2022-09-01T07:43:32.727Z,102429.63
2022-09-01T07:46:37.340Z,102417.19
2022-09-01T07:51:59.612Z,102426.06
2022-09-01T07:54:30.216Z,102426.06
2022-09-01T07:56:59.515Z,102420.72
2022-09-01T07:59:29.501Z,102426.09
2022-09-01T08:02:07.165Z,102419.81
2022-09-01T08:04:36.686Z,102418.91
2022-09-01T08:07:06.042Z,102422.50
2022-09-01T08:09:43.731Z,102427.75
2022-09-01T08:12:14.076Z,102431.28
2022-09-01T08:15:12.757Z,102425.88
2022-09-01T08:17:51.761Z,102424.06
2022-09-01T08:20:21.618Z,102430.28
2022-09-01T08:22:53.204Z,102426.75
2022-09-01T08:25:26.183Z,102428.44
2022-09-01T08:28:00.353Z,102423.00
2022-09-01T08:30:30.341Z,102422.88
2022-09-01T08:33:10.183Z,102421.00
2022-09-01T08:35:41.282Z,102426.25
2022-09-01T08:38:10.851Z,102426.16
2022-09-01T08:40:51.543Z,102421.59
2022-09-01T08:43:36.001Z,102414.31
2022-09-01T08:46:42.556Z,102412.38
2022-09-01T08:49:26.479Z,102419.38
2022-09-01T08:52:26.365Z,102420.09
2022-09-01T08:55:25.957Z,102425.25
2022-09-01T08:57:59.741Z,102423.22
2022-09-01T09:00:36.199Z,102421.34
2022-09-01T09:03:40.430Z,102422.91
2022-09-01T09:06:21.838Z,102423.66
2022-09-01T09:09:05.170Z,102418.50
2022-09-01T09:11:39.179Z,102407.94
2022-09-01T09:14:37.614Z,102411.47
2022-09-01T09:17:06.382Z,102412.28
2022-09-01T09:19:40.772Z,102417.59
2022-09-01T09:22:16.337Z,102421.22
2022-09-01T09:24:47.658Z,102405.31
2022-09-01T09:27:35.699Z,102404.50
2022-09-01T09:30:24.683Z,102400.91
2022-09-01T09:35:47.377Z,102400.97
2022-09-01T09:38:33.590Z,102397.25
2022-09-01T09:41:17.251Z,102402.47
2022-09-01T09:43:58.733Z,102392.50
2022-09-01T09:46:39.558Z,102398.53
2022-09-01T09:49:11.096Z,102398.47
2022-09-01T09:51:42.582Z,102398.56
2022-09-01T09:54:32.487Z,102403.16
2022-09-01T09:57:11.707Z,102393.34
2022-09-01T10:00:05.573Z,102386.16
2022-09-01T10:02:51.944Z,102397.69
2022-09-01T10:05:34.509Z,102392.34
2022-09-01T10:08:05.013Z,102400.50
2022-09-01T10:10:58.435Z,102390.72
2022-09-01T10:13:32.994Z,102380.88
2022-09-01T10:16:09.191Z,102377.34
2022-09-01T10:18:44.811Z,102377.13
2022-09-01T10:21:24.114Z,102375.19
2022-09-01T10:23:53.065Z,102376.84
2022-09-01T10:26:25.201Z,102376.75
2022-09-01T10:29:00.940Z,102370.59
2022-09-01T10:31:32.372Z,102365.28
2022-09-01T10:34:05.448Z,102361.50
2022-09-01T10:36:37.539Z,102359.50
2022-09-01T10:39:11.183Z,102361.19
2022-09-01T10:42:00.316Z,102357.50
2022-09-01T10:44:34.131Z,102351.31
2022-09-01T10:47:37.865Z,102359.34
2022-09-01T10:50:26.407Z,102351.34
2022-09-01T10:52:58.796Z,102347.81
2022-09-01T10:55:39.939Z,102348.81
2022-09-01T11:01:11.404Z,102349.38
2022-09-01T11:03:52.189Z,102348.22
2022-09-01T11:07:12.573Z,102334.44
2022-09-01T11:09:44.540Z,102344.84
2022-09-01T11:12:30.963Z,102333.03
2022-09-01T11:15:00.615Z,102333.69
2022-09-01T11:17:37.600Z,102330.03
2022-09-01T11:20:12.943Z,102334.44
2022-09-01T11:22:59.516Z,102337.81
2022-09-01T11:25:43.750Z,102334.09
2022-09-01T11:28:15.286Z,102334.13
2022-09-01T11:31:01.366Z,102331.47
2022-09-01T11:33:34.226Z,102337.72
2022-09-01T11:36:07.003Z,102333.25
2022-09-01T11:39:09.412Z,102325.06
2022-09-01T11:42:04.621Z,102329.41
2022-09-01T11:44:51.214Z,102322.28
2022-09-01T11:47:27.320Z,102318.63
2022-09-01T11:50:02.437Z,102324.78
2022-09-01T11:52:34.421Z,102311.19
2022-09-01T11:55:06.558Z,102319.28
2022-09-01T11:57:37.937Z,102317.38
2022-09-01T12:00:13.260Z,102314.69
2022-09-01T12:02:50.717Z,102312.06
2022-09-01T12:05:39.107Z,102305.69
2022-09-01T12:08:18.414Z,102312.69
2022-09-01T12:11:04.161Z,102311.94
2022-09-01T12:13:33.407Z,102311.22
2022-09-01T12:16:20.700Z,102304.31
2022-09-01T12:18:52.068Z,102298.09
2022-09-01T12:21:42.868Z,102300.63
2022-09-01T12:24:23.890Z,102313.25
2022-09-01T12:26:55.845Z,102308.81
2022-09-01T12:29:25.401Z,102304.16
2022-09-01T12:31:56.165Z,102300.38
2022-09-01T12:34:28.622Z,102308.28
2022-09-01T12:37:20.921Z,102294.75
2022-09-01T12:39:56.304Z,102302.72
2022-09-01T12:42:40.932Z,102296.28
2022-09-01T12:45:11.135Z,102290.69
2022-09-01T12:47:40.947Z,102297.78
2022-09-01T12:50:09.287Z,102292.41
2022-09-01T12:52:47.273Z,102283.47
2022-09-01T12:58:09.187Z,102287.75
2022-09-01T13:00:58.621Z,102275.09
2022-09-01T13:03:30.529Z,102276.78
2022-09-01T13:06:00.973Z,102266.75
2022-09-01T13:08:35.158Z,102273.06
2022-09-01T13:11:18.436Z,102267.47
2022-09-01T13:13:47.318Z,102266.34
2022-09-01T13:16:15.801Z,102263.66
2022-09-01T13:21:35.223Z,102259.16
2022-09-01T13:24:07.181Z,102257.28
2022-09-01T13:26:36.242Z,102267.38
2022-09-01T13:29:04.652Z,102262.50
2022-09-01T13:31:34.372Z,102255.53
2022-09-01T13:34:22.042Z,102248.38
2022-09-01T13:36:52.802Z,102243.00
2022-09-01T13:39:21.468Z,102242.13
2022-09-01T13:41:49.804Z,102243.06
2022-09-01T13:44:18.712Z,102233.09
2022-09-01T13:50:04.592Z,102232.22
2022-09-01T13:52:24.440Z,102223.13
2022-09-01T13:54:52.966Z,102220.41
2022-09-01T13:57:27.766Z,102217.91
2022-09-01T14:00:16.694Z,102215.22
2022-09-01T14:02:53.090Z,102213.34
2022-09-01T14:05:28.479Z,102215.06
2022-09-01T14:07:58.806Z,102202.59
2022-09-01T14:10:29.165Z,102209.88
2022-09-01T14:12:58.291Z,102210.69
2022-09-01T14:15:27.551Z,102200.81
2022-09-01T14:17:57.934Z,102199.19
2022-09-01T14:20:31.125Z,102199.25
2022-09-01T14:23:04.729Z,102194.81
2022-09-01T14:25:33.968Z,102192.03
2022-09-01T14:28:03.217Z,102189.34
2022-09-01T14:30:32.993Z,102190.19
2022-09-01T14:33:02.715Z,102191.06
2022-09-01T14:35:33.787Z,102187.50
2022-09-01T14:38:05.272Z,102195.47
2022-09-01T14:40:36.803Z,102191.13
2022-09-01T14:43:07.800Z,102183.22
2022-09-01T14:45:37.795Z,102184.19
2022-09-01T14:48:09.100Z,102192.28
2022-09-01T14:50:42.355Z,102186.91
2022-09-01T14:53:12.292Z,102183.41
2022-09-01T14:55:44.086Z,102184.78
2022-09-01T14:58:13.886Z,102182.56
2022-09-01T15:00:42.337Z,102166.56
2022-09-01T15:03:10.921Z,102169.25
2022-09-01T15:05:40.848Z,102164.72
2022-09-01T15:08:15.556Z,102166.50
2022-09-01T15:10:46.126Z,102155.69
2022-09-01T15:13:14.535Z,102160.13
2022-09-01T15:15:43.085Z,102153.91
2022-09-01T15:18:12.718Z,102154.81
2022-09-01T15:20:47.574Z,102145.00
2022-09-01T15:23:22.602Z,102144.97
2022-09-01T15:25:53.888Z,102142.25
2022-09-01T15:28:22.935Z,102135.03
2022-09-01T15:30:54.282Z,102128.72
2022-09-01T15:33:23.310Z,102135.13
2022-09-01T15:35:51.789Z,102129.78
2022-09-01T15:38:27.127Z,102131.78
2022-09-01T15:40:58.880Z,102131.09
2022-09-01T15:43:29.135Z,102125.00
2022-09-01T15:45:58.957Z,102130.38
2022-09-01T15:48:29.298Z,102123.28
2022-09-01T15:51:23.694Z,102118.94
2022-09-01T15:53:54.572Z,102118.22
2022-09-01T15:56:23.045Z,102133.50
2022-09-01T15:59:01.271Z,102127.34
2022-09-01T16:01:33.770Z,102121.19
2022-09-01T16:04:04.150Z,102114.91
2022-09-01T16:06:34.856Z,102122.13
2022-09-01T16:09:03.935Z,102118.59
2022-09-01T16:11:32.509Z,102118.63
2022-09-01T16:14:03.716Z,102121.31
2022-09-01T16:16:48.136Z,102118.66
2022-09-01T16:19:27.261Z,102107.16
2022-09-01T16:21:58.641Z,102113.47
2022-09-01T16:24:27.368Z,102113.53
2022-09-01T16:26:56.716Z,102115.34
2022-09-01T16:29:45.208Z,102102.94
2022-09-01T16:32:14.795Z,102110.16
2022-09-01T16:34:47.025Z,102121.00
2022-09-01T16:37:19.367Z,102110.41
2022-09-01T16:39:55.683Z,102104.16
2022-09-01T16:42:50.531Z,102098.84
2022-09-01T16:45:47.255Z,102101.66
2022-09-01T16:48:44.195Z,102101.78
2022-09-01T16:51:51.135Z,102099.16
2022-09-01T16:54:31.717Z,102105.44
2022-09-01T16:57:18.782Z,102102.78
2022-09-01T17:00:01.906Z,102092.19
2022-09-01T17:02:43.784Z,102103.00
2022-09-01T17:05:47.113Z,102096.91
2022-09-01T17:08:25.961Z,102094.31
2022-09-01T17:11:09.728Z,102105.09
2022-09-01T17:13:41.558Z,102102.44
2022-09-01T17:16:25.020Z,102106.13
2022-09-01T17:18:59.630Z,102106.22
2022-09-01T17:21:37.215Z,102106.34
2022-09-01T17:24:39.143Z,102102.09
2022-09-01T17:27:27.067Z,102106.66
2022-09-01T17:29:59.118Z,102110.38
2022-09-01T17:32:49.080Z,102100.66
2022-09-01T17:35:29.978Z,102102.53
2022-09-01T17:38:01.157Z,102101.75
2022-09-01T17:40:59.104Z,102108.09
2022-09-01T17:44:07.171Z,102114.56
2022-09-01T17:46:59.721Z,102104.88
2022-09-01T17:49:52.748Z,102111.22
2022-09-01T17:52:40.080Z,102106.97
2022-09-01T17:55:17.613Z,102112.47
2022-09-01T17:58:07.026Z,102115.28
2022-09-01T18:00:44.557Z,102116.38
2022-09-01T18:03:32.380Z,102121.84
2022-09-01T18:06:10.086Z,102104.09
2022-09-01T18:08:42.992Z,102119.38
2022-09-01T18:11:29.376Z,102121.25
2022-09-01T18:14:09.330Z,102118.75
2022-09-01T18:17:07.749Z,102117.09
2022-09-01T18:19:40.530Z,102122.53
2022-09-01T18:22:14.971Z,102128.84
2022-09-01T18:24:56.434Z,102125.31
2022-09-01T18:27:27.768Z,102129.88
2022-09-01T18:30:04.322Z,102121.94
2022-09-01T18:33:05.208Z,102121.13
2022-09-01T18:35:46.812Z,102122.09
2022-09-01T18:38:22.822Z,102126.63
2022-09-01T18:41:30.783Z,102134.63
2022-09-01T18:44:16.587Z,102130.22
2022-09-01T18:46:57.774Z,102133.84
2022-09-01T18:49:41.739Z,102129.44
2022-09-01T18:52:32.237Z,102133.94
2022-09-01T18:55:09.871Z,102133.13
2022-09-01T18:57:40.388Z,102143.81
2022-09-01T19:00:27.974Z,102144.75
2022-09-01T19:03:25.108Z,102141.22
2022-09-01T19:06:02.973Z,102143.06
2022-09-01T19:08:45.341Z,102141.34
2022-09-01T19:12:10.598Z,102146.69
2022-09-01T19:15:05.517Z,102140.53
2022-09-01T19:17:57.934Z,102143.22
2022-09-01T19:21:04.793Z,102140.63
2022-09-01T19:23:52.587Z,102142.47
2022-09-01T19:26:24.400Z,102144.22
2022-09-01T19:29:04.986Z,102146.06
2022-09-01T19:31:43.220Z,102152.31
2022-09-01T19:34:17.896Z,102146.94
2022-09-01T19:36:51.862Z,102140.75
2022-09-01T19:39:26.265Z,102146.09
2022-09-01T19:42:08.631Z,102147.00
2022-09-01T19:45:06.736Z,102150.59
2022-09-01T19:47:47.618Z,102148.81
2022-09-01T19:50:23.941Z,102151.50
2022-09-01T19:53:08.824Z,102160.38
2022-09-01T19:55:49.079Z,102155.09
2022-09-01T19:58:25.225Z,102158.63
2022-09-01T20:00:56.895Z,102159.50
2022-09-01T20:03:40.641Z,102147.97
2022-09-01T20:06:19.181Z,102157.75
2022-09-01T20:09:07.346Z,102168.47
2022-09-01T20:11:41.883Z,102173.78
2022-09-01T20:14:34.920Z,102167.59
2022-09-01T20:17:07.046Z,102169.38
2022-09-01T20:19:44.706Z,102166.72
2022-09-01T20:22:32.636Z,102169.38
2022-09-01T20:25:09.862Z,102169.41
2022-09-01T20:28:03.217Z,102165.88
2022-09-01T20:30:41.475Z,102170.28
2022-09-01T20:33:28.857Z,102164.97
2022-09-01T20:36:07.089Z,102163.22
2022-09-01T20:39:11.282Z,102169.44
2022-09-01T20:42:02.394Z,102165.00
2022-09-01T20:44:55.523Z,102166.81
2022-09-01T20:47:29.212Z,102154.34
2022-09-01T20:50:00.230Z,102166.78
2022-09-01T20:52:28.657Z,102161.50
2022-09-01T20:55:26.130Z,102162.38
2022-09-01T20:58:08.141Z,102157.03
2022-09-01T21:00:50.624Z,102161.50
2022-09-01T21:03:33.850Z,102162.41
2022-09-01T21:06:13.550Z,102160.66
2022-09-01T21:08:49.114Z,102164.19
2022-09-01T21:11:33.106Z,102166.88
2022-09-01T21:14:14.045Z,102169.53
2022-09-01T21:17:09.068Z,102174.88
2022-09-01T21:19:57.915Z,102165.13
2022-09-01T21:22:28.102Z,102172.19
2022-09-01T21:24:56.535Z,102157.09
2022-09-01T21:27:31.292Z,102159.75
2022-09-01T21:30:14.057Z,102158.00
2022-09-01T21:32:42.832Z,102152.66
2022-09-01T21:35:15.398Z,102156.22
2022-09-01T21:37:43.843Z,102157.13
2022-09-01T21:40:13.983Z,102155.34
2022-09-01T21:42:54.465Z,102143.81
2022-09-01T21:45:23.539Z,102155.38
2022-09-01T21:47:52.944Z,102144.72
2022-09-01T21:50:23.777Z,102152.69
2022-09-01T21:52:52.187Z,102151.78
2022-09-01T21:55:23.246Z,102151.81
2022-09-01T21:57:52.132Z,102148.28
2022-09-01T22:00:24.438Z,102150.06
2022-09-01T22:02:53.555Z,102153.59
2022-09-01T22:05:21.932Z,102154.50
2022-09-01T22:07:50.813Z,102156.25
2022-09-01T22:10:21.502Z,102162.44
2022-09-01T22:12:53.536Z,102158.03
2022-09-01T22:15:24.823Z,102154.50
2022-09-01T22:17:55.791Z,102155.38
2022-09-01T22:20:29.267Z,102165.13
2022-09-01T22:23:01.870Z,102162.47
2022-09-01T22:25:31.977Z,102158.03
2022-09-01T22:28:05.845Z,102162.47
2022-09-01T22:30:35.189Z,102158.91
2022-09-01T22:33:04.323Z,102158.91
2022-09-01T22:35:32.692Z,102158.00
2022-09-01T22:38:00.970Z,102164.22
2022-09-01T22:40:30.979Z,102165.13
2022-09-01T22:42:59.306Z,102157.13
2022-09-01T22:45:27.944Z,102154.47
2022-09-01T22:47:56.319Z,102153.56
2022-09-01T22:50:24.735Z,102159.78
2022-09-01T22:52:52.999Z,102157.13
2022-09-01T22:55:21.572Z,102154.44
2022-09-01T22:57:49.889Z,102152.69
2022-09-01T23:00:18.957Z,102147.34
2022-09-01T23:02:47.449Z,102144.69
2022-09-01T23:05:18.534Z,102138.47
2022-09-01T23:07:46.834Z,102135.81
2022-09-01T23:10:15.667Z,102131.38
2022-09-01T23:12:44.125Z,102132.25
2022-09-01T23:15:12.778Z,102122.50
2022-09-01T23:17:41.091Z,102122.50
2022-09-01T23:20:13.055Z,102129.63
2022-09-01T23:22:43.661Z,102133.19
2022-09-01T23:25:13.253Z,102127.84
2022-09-01T23:27:41.853Z,102121.66
2022-09-01T23:30:12.217Z,102122.53
2022-09-01T23:32:41.053Z,102116.34
2022-09-01T23:35:10.101Z,102115.44
2022-09-01T23:37:38.511Z,102114.53
2022-09-01T23:40:07.934Z,102115.44
2022-09-01T23:42:36.526Z,102107.47
2022-09-01T23:45:06.082Z,102102.13
2022-09-01T23:47:36.022Z,102107.50
2022-09-01T23:50:05.573Z,102109.25
2022-09-01T23:52:34.652Z,102097.75
2022-09-01T23:55:03.139Z,102100.38
2022-09-01T23:57:31.475Z,102100.38
2022-09-01T23:59:59.791Z,102095.97
